Beehive, Montana
Current Conditions -  °F | °C
As of 3:53 PM on Tuesday 21 Oct 2014 (Local Time) from KLVM Reporting Station
Clear Clear  
Wind Chill: 59°   Ceiling: Unl
Heat Index: 59°   Visibility: 10mi
Dew Point: 23°   Wind: 46mph
Humidity: 25%   Direction: 220°SW
Pressure: 29.75"   Gusts: 56mph
Location:  45.4577°N, 109.823°W
Report Text: KLVM 212153Z AUTO 22040G49KT 10SM CLR 15/M05 A2975 RMK AO2 PK WND 22049/2153 SLP054 T01501050
Loading
Personal Weather Stations






























Interactive Weather Map New forecast layout! Learn more

10-Day Weather Forecast

Advertisements
Track Severe Weather on mobile